sensor_id;sensor_type;location;lat;lon;timestamp;pressure;altitude;pressure_sealevel;temperature;humidity
75401;BME280;63974;47.538;18.972;2023-11-21T00:02:58;99857.16;;;6.55;97.64
75401;BME280;63974;47.538;18.972;2023-11-21T00:06:01;99853.94;;;6.53;97.99
75401;BME280;63974;47.538;18.972;2023-11-21T00:09:04;99851.53;;;6.52;98.80
75401;BME280;63974;47.538;18.972;2023-11-21T00:12:08;99857.34;;;6.62;97.81
75401;BME280;63974;47.538;18.972;2023-11-21T00:15:14;99861.34;;;6.49;96.57
75401;BME280;63974;47.538;18.972;2023-11-21T00:18:16;99852.25;;;6.37;97.14
75401;BME280;63974;47.538;18.972;2023-11-21T00:21:19;99845.59;;;6.34;97.23
75401;BME280;63974;47.538;18.972;2023-11-21T00:24:22;99852.69;;;6.32;97.44
75401;BME280;63974;47.538;18.972;2023-11-21T00:27:24;99851.28;;;6.38;97.00
75401;BME280;63974;47.538;18.972;2023-11-21T00:30:28;99848.25;;;6.42;96.71
75401;BME280;63974;47.538;18.972;2023-11-21T00:33:31;99853.53;;;6.41;96.95
75401;BME280;63974;47.538;18.972;2023-11-21T00:36:34;99857.59;;;6.43;97.53
75401;BME280;63974;47.538;18.972;2023-11-21T00:39:37;99852.44;;;6.43;97.51
75401;BME280;63974;47.538;18.972;2023-11-21T00:42:41;99845.03;;;6.48;97.88
75401;BME280;63974;47.538;18.972;2023-11-21T00:45:44;99849.63;;;6.62;98.09
75401;BME280;63974;47.538;18.972;2023-11-21T00:48:47;99842.38;;;6.65;97.75
75401;BME280;63974;47.538;18.972;2023-11-21T00:51:51;99842.19;;;6.59;97.27
75401;BME280;63974;47.538;18.972;2023-11-21T00:54:54;99832.66;;;6.52;97.64
75401;BME280;63974;47.538;18.972;2023-11-21T00:57:57;99830.91;;;6.52;98.39
75401;BME280;63974;47.538;18.972;2023-11-21T01:01:00;99833.31;;;6.53;98.97
75401;BME280;63974;47.538;18.972;2023-11-21T01:04:03;99832.25;;;6.64;98.84
75401;BME280;63974;47.538;18.972;2023-11-21T01:07:07;99824.19;;;6.67;99.15
75401;BME280;63974;47.538;18.972;2023-11-21T01:10:10;99822.25;;;6.69;100.00
75401;BME280;63974;47.538;18.972;2023-11-21T01:13:14;99813.41;;;6.71;99.20
75401;BME280;63974;47.538;18.972;2023-11-21T01:16:18;99816.44;;;6.75;100.00
75401;BME280;63974;47.538;18.972;2023-11-21T01:19:21;99812.44;;;6.72;100.00
75401;BME280;63974;47.538;18.972;2023-11-21T01:22:24;99811.50;;;6.89;100.00
75401;BME280;63974;47.538;18.972;2023-11-21T01:25:28;99803.63;;;6.99;98.47
75401;BME280;63974;47.538;18.972;2023-11-21T01:28:31;99806.53;;;6.96;98.38
75401;BME280;63974;47.538;18.972;2023-11-21T01:31:34;99800.22;;;6.82;99.88
75401;BME280;63974;47.538;18.972;2023-11-21T01:34:37;99801.66;;;6.77;100.00
75401;BME280;63974;47.538;18.972;2023-11-21T01:37:40;99792.84;;;6.95;99.95
75401;BME280;63974;47.538;18.972;2023-11-21T01:40:42;99807.72;;;7.09;99.04
75401;BME280;63974;47.538;18.972;2023-11-21T01:43:45;99801.91;;;7.15;98.65
75401;BME280;63974;47.538;18.972;2023-11-21T01:46:48;99798.16;;;7.10;99.09
75401;BME280;63974;47.538;18.972;2023-11-21T01:49:51;99797.06;;;7.12;98.76
75401;BME280;63974;47.538;18.972;2023-11-21T01:52:54;99787.41;;;7.22;97.64
75401;BME280;63974;47.538;18.972;2023-11-21T01:55:57;99795.31;;;7.29;97.46
75401;BME280;63974;47.538;18.972;2023-11-21T01:59:02;99795.00;;;7.24;97.82
75401;BME280;63974;47.538;18.972;2023-11-21T02:02:06;99793.22;;;7.32;98.20
75401;BME280;63974;47.538;18.972;2023-11-21T02:05:11;99795.00;;;7.40;98.00
75401;BME280;63974;47.538;18.972;2023-11-21T02:08:17;99794.53;;;7.44;98.01
75401;BME280;63974;47.538;18.972;2023-11-21T02:11:21;99784.81;;;7.38;98.14
75401;BME280;63974;47.538;18.972;2023-11-21T02:14:27;99782.41;;;7.37;97.66
75401;BME280;63974;47.538;18.972;2023-11-21T02:17:30;99775.78;;;7.34;97.49
75401;BME280;63974;47.538;18.972;2023-11-21T02:20:35;99775.16;;;7.32;97.57
75401;BME280;63974;47.538;18.972;2023-11-21T02:23:39;99770.13;;;7.15;98.81
75401;BME280;63974;47.538;18.972;2023-11-21T02:26:47;99766.72;;;6.98;100.00
75401;BME280;63974;47.538;18.972;2023-11-21T02:29:50;99760.44;;;7.01;100.00
75401;BME280;63974;47.538;18.972;2023-11-21T02:32:52;99764.63;;;7.02;100.00
75401;BME280;63974;47.538;18.972;2023-11-21T02:35:55;99759.09;;;6.97;100.00
75401;BME280;63974;47.538;18.972;2023-11-21T02:38:58;99756.56;;;7.05;100.00
75401;BME280;63974;47.538;18.972;2023-11-21T02:42:01;99761.38;;;7.08;100.00
75401;BME280;63974;47.538;18.972;2023-11-21T02:45:04;99758.97;;;7.14;100.00
75401;BME280;63974;47.538;18.972;2023-11-21T02:48:07;99750.44;;;7.14;100.00
75401;BME280;63974;47.538;18.972;2023-11-21T02:51:10;99750.06;;;6.93;100.00
75401;BME280;63974;47.538;18.972;2023-11-21T02:54:14;99756.06;;;7.01;100.00
75401;BME280;63974;47.538;18.972;2023-11-21T02:57:19;99767.84;;;7.20;100.00
75401;BME280;63974;47.538;18.972;2023-11-21T03:00:21;99761.59;;;7.30;100.00
75401;BME280;63974;47.538;18.972;2023-11-21T03:03:26;99759.81;;;7.39;100.00
75401;BME280;63974;47.538;18.972;2023-11-21T03:06:29;99753.97;;;7.45;100.00
75401;BME280;63974;47.538;18.972;2023-11-21T03:09:32;99741.72;;;7.39;100.00
75401;BME280;63974;47.538;18.972;2023-11-21T03:12:35;99747.53;;;7.33;100.00
75401;BME280;63974;47.538;18.972;2023-11-21T03:15:38;99742.72;;;7.38;100.00
75401;BME280;63974;47.538;18.972;2023-11-21T03:18:41;99731.22;;;7.40;100.00
75401;BME280;63974;47.538;18.972;2023-11-21T03:21:43;99734.63;;;7.41;100.00
75401;BME280;63974;47.538;18.972;2023-11-21T03:24:46;99736.88;;;7.52;100.00
75401;BME280;63974;47.538;18.972;2023-11-21T03:27:49;99729.63;;;7.55;100.00
75401;BME280;63974;47.538;18.972;2023-11-21T03:30:52;99723.94;;;7.60;100.00
75401;BME280;63974;47.538;18.972;2023-11-21T03:33:56;99732.03;;;7.65;100.00
75401;BME280;63974;47.538;18.972;2023-11-21T03:36:58;99729.75;;;7.70;100.00
75401;BME280;63974;47.538;18.972;2023-11-21T03:40:01;99744.47;;;7.69;100.00
75401;BME280;63974;47.538;18.972;2023-11-21T03:43:08;99760.94;;;7.52;100.00
75401;BME280;63974;47.538;18.972;2023-11-21T03:46:10;99763.22;;;7.31;100.00
75401;BME280;63974;47.538;18.972;2023-11-21T03:49:14;99772.53;;;7.24;100.00
75401;BME280;63974;47.538;18.972;2023-11-21T03:52:17;99785.94;;;7.12;100.00
75401;BME280;63974;47.538;18.972;2023-11-21T03:55:20;99790.44;;;7.10;100.00
75401;BME280;63974;47.538;18.972;2023-11-21T03:58:23;99795.41;;;7.03;100.00
75401;BME280;63974;47.538;18.972;2023-11-21T04:01:25;99772.97;;;6.88;100.00
75401;BME280;63974;47.538;18.972;2023-11-21T04:04:28;99808.19;;;7.05;100.00
75401;BME280;63974;47.538;18.972;2023-11-21T04:07:31;99821.88;;;7.05;100.00
75401;BME280;63974;47.538;18.972;2023-11-21T04:10:34;99829.78;;;7.04;100.00
75401;BME280;63974;47.538;18.972;2023-11-21T04:13:38;99851.56;;;7.01;100.00
75401;BME280;63974;47.538;18.972;2023-11-21T04:16:41;99851.72;;;7.00;100.00
75401;BME280;63974;47.538;18.972;2023-11-21T04:19:44;99838.03;;;7.07;100.00
75401;BME280;63974;47.538;18.972;2023-11-21T04:22:47;99831.59;;;7.11;100.00
75401;BME280;63974;47.538;18.972;2023-11-21T04:25:49;99846.63;;;7.24;100.00
75401;BME280;63974;47.538;18.972;2023-11-21T04:28:53;99850.66;;;7.26;100.00
75401;BME280;63974;47.538;18.972;2023-11-21T04:31:55;99847.91;;;7.28;100.00
75401;BME280;63974;47.538;18.972;2023-11-21T04:34:58;99847.63;;;7.39;100.00
75401;BME280;63974;47.538;18.972;2023-11-21T04:38:01;99841.31;;;7.49;100.00
75401;BME280;63974;47.538;18.972;2023-11-21T04:41:05;99839.56;;;7.58;100.00
75401;BME280;63974;47.538;18.972;2023-11-21T04:44:07;99827.28;;;7.60;100.00
75401;BME280;63974;47.538;18.972;2023-11-21T04:47:10;99826.81;;;7.64;100.00
75401;BME280;63974;47.538;18.972;2023-11-21T04:50:13;99813.88;;;7.72;100.00
75401;BME280;63974;47.538;18.972;2023-11-21T04:53:16;99825.06;;;7.73;100.00
75401;BME280;63974;47.538;18.972;2023-11-21T04:56:18;99821.66;;;7.80;100.00
75401;BME280;63974;47.538;18.972;2023-11-21T04:59:21;99821.16;;;7.85;100.00
75401;BME280;63974;47.538;18.972;2023-11-21T05:02:27;99825.50;;;7.84;100.00
75401;BME280;63974;47.538;18.972;2023-11-21T05:05:37;99823.09;;;7.83;100.00
75401;BME280;63974;47.538;18.972;2023-11-21T05:08:40;99826.16;;;7.94;100.00
75401;BME280;63974;47.538;18.972;2023-11-21T05:11:43;99831.97;;;7.96;100.00
75401;BME280;63974;47.538;18.972;2023-11-21T05:14:45;99841.16;;;8.07;100.00
75401;BME280;63974;47.538;18.972;2023-11-21T05:17:49;99840.19;;;8.16;100.00
75401;BME280;63974;47.538;18.972;2023-11-21T05:20:56;99848.09;;;8.14;100.00
75401;BME280;63974;47.538;18.972;2023-11-21T05:23:59;99852.97;;;8.17;100.00
75401;BME280;63974;47.538;18.972;2023-11-21T05:27:02;99844.88;;;8.12;100.00
75401;BME280;63974;47.538;18.972;2023-11-21T05:30:05;99847.44;;;8.12;100.00
75401;BME280;63974;47.538;18.972;2023-11-21T05:33:08;99841.50;;;8.12;100.00
75401;BME280;63974;47.538;18.972;2023-11-21T05:36:11;99857.66;;;7.98;100.00
75401;BME280;63974;47.538;18.972;2023-11-21T05:39:14;99857.16;;;7.86;100.00
75401;BME280;63974;47.538;18.972;2023-11-21T05:42:19;99847.16;;;7.75;100.00
75401;BME280;63974;47.538;18.972;2023-11-21T05:45:23;99857.81;;;7.72;100.00
75401;BME280;63974;47.538;18.972;2023-11-21T05:48:26;99860.56;;;7.79;100.00
75401;BME280;63974;47.538;18.972;2023-11-21T05:51:29;99860.72;;;7.85;100.00
75401;BME280;63974;47.538;18.972;2023-11-21T05:54:32;99853.63;;;7.95;100.00
75401;BME280;63974;47.538;18.972;2023-11-21T05:57:39;99858.78;;;8.03;100.00
75401;BME280;63974;47.538;18.972;2023-11-21T06:00:42;99871.38;;;7.98;100.00
75401;BME280;63974;47.538;18.972;2023-11-21T06:03:44;99868.31;;;7.95;100.00
75401;BME280;63974;47.538;18.972;2023-11-21T06:06:48;99871.88;;;7.94;100.00
75401;BME280;63974;47.538;18.972;2023-11-21T06:09:51;99873.97;;;7.90;100.00
75401;BME280;63974;47.538;18.972;2023-11-21T06:12:54;99878.66;;;7.87;100.00
75401;BME280;63974;47.538;18.972;2023-11-21T06:15:56;99882.72;;;7.81;100.00
75401;BME280;63974;47.538;18.972;2023-11-21T06:18:59;99886.41;;;7.79;100.00
75401;BME280;63974;47.538;18.972;2023-11-21T06:22:02;99886.25;;;7.88;100.00
75401;BME280;63974;47.538;18.972;2023-11-21T06:25:05;99898.34;;;7.96;100.00
75401;BME280;63974;47.538;18.972;2023-11-21T06:28:08;99899.66;;;8.00;100.00
75401;BME280;63974;47.538;18.972;2023-11-21T06:31:11;99919.22;;;8.10;100.00
75401;BME280;63974;47.538;18.972;2023-11-21T06:34:14;99926.16;;;8.18;100.00
75401;BME280;63974;47.538;18.972;2023-11-21T06:37:17;99927.97;;;8.25;100.00
75401;BME280;63974;47.538;18.972;2023-11-21T06:40:20;99922.97;;;8.24;100.00
75401;BME280;63974;47.538;18.972;2023-11-21T06:43:23;99933.13;;;8.33;100.00
75401;BME280;63974;47.538;18.972;2023-11-21T06:46:27;99937.19;;;8.36;100.00
75401;BME280;63974;47.538;18.972;2023-11-21T06:49:30;99937.19;;;8.36;100.00
75401;BME280;63974;47.538;18.972;2023-11-21T06:52:34;99943.19;;;8.28;100.00
75401;BME280;63974;47.538;18.972;2023-11-21T06:55:37;99943.47;;;8.33;100.00
75401;BME280;63974;47.538;18.972;2023-11-21T06:58:39;99945.44;;;8.31;100.00
75401;BME280;63974;47.538;18.972;2023-11-21T07:01:43;99953.34;;;8.30;100.00
75401;BME280;63974;47.538;18.972;2023-11-21T07:04:46;99948.81;;;8.32;100.00
75401;BME280;63974;47.538;18.972;2023-11-21T07:07:49;99923.59;;;8.26;100.00
75401;BME280;63974;47.538;18.972;2023-11-21T07:10:52;99952.22;;;8.40;100.00
75401;BME280;63974;47.538;18.972;2023-11-21T07:13:55;99948.00;;;8.39;100.00
75401;BME280;63974;47.538;18.972;2023-11-21T07:16:58;99942.03;;;8.31;100.00
75401;BME280;63974;47.538;18.972;2023-11-21T07:20:02;99946.72;;;8.35;100.00
75401;BME280;63974;47.538;18.972;2023-11-21T07:23:05;99940.88;;;8.17;100.00
75401;BME280;63974;47.538;18.972;2023-11-21T07:26:08;99934.88;;;8.17;100.00
75401;BME280;63974;47.538;18.972;2023-11-21T07:29:13;99923.44;;;8.03;100.00
75401;BME280;63974;47.538;18.972;2023-11-21T07:32:16;99931.50;;;8.08;100.00
75401;BME280;63974;47.538;18.972;2023-11-21T07:35:18;99903.50;;;7.72;100.00
75401;BME280;63974;47.538;18.972;2023-11-21T07:38:21;99918.25;;;7.79;100.00
75401;BME280;63974;47.538;18.972;2023-11-21T07:41:24;99918.25;;;7.79;100.00
75401;BME280;63974;47.538;18.972;2023-11-21T07:44:33;99924.19;;;7.80;100.00
75401;BME280;63974;47.538;18.972;2023-11-21T07:47:35;99941.81;;;7.84;100.00
75401;BME280;63974;47.538;18.972;2023-11-21T07:50:38;99934.06;;;7.84;100.00
75401;BME280;63974;47.538;18.972;2023-11-21T07:53:41;99934.88;;;7.85;100.00
75401;BME280;63974;47.538;18.972;2023-11-21T07:56:44;99934.09;;;7.92;100.00
75401;BME280;63974;47.538;18.972;2023-11-21T07:59:47;99927.31;;;7.91;100.00
75401;BME280;63974;47.538;18.972;2023-11-21T08:02:50;99920.66;;;7.89;100.00
75401;BME280;63974;47.538;18.972;2023-11-21T08:05:53;99921.81;;;7.94;100.00
75401;BME280;63974;47.538;18.972;2023-11-21T08:08:56;99912.25;;;7.95;100.00
75401;BME280;63974;47.538;18.972;2023-11-21T08:11:59;99893.53;;;7.85;100.00
75401;BME280;63974;47.538;18.972;2023-11-21T08:15:03;99892.06;;;7.74;100.00
75401;BME280;63974;47.538;18.972;2023-11-21T08:18:06;99887.53;;;7.84;100.00
75401;BME280;63974;47.538;18.972;2023-11-21T08:21:12;99885.91;;;7.99;100.00
75401;BME280;63974;47.538;18.972;2023-11-21T08:24:15;99892.72;;;8.00;100.00
75401;BME280;63974;47.538;18.972;2023-11-21T08:27:18;99862.97;;;7.88;100.00
75401;BME280;63974;47.538;18.972;2023-11-21T08:30:21;99865.25;;;7.83;100.00
75401;BME280;63974;47.538;18.972;2023-11-21T08:33:26;99850.53;;;7.84;100.00
75401;BME280;63974;47.538;18.972;2023-11-21T08:36:29;99849.75;;;7.83;100.00
75401;BME280;63974;47.538;18.972;2023-11-21T08:39:34;99846.03;;;7.86;100.00
75401;BME280;63974;47.538;18.972;2023-11-21T08:42:36;99845.06;;;7.87;100.00
75401;BME280;63974;47.538;18.972;2023-11-21T08:45:40;99849.09;;;7.97;100.00
75401;BME280;63974;47.538;18.972;2023-11-21T08:48:42;99852.97;;;8.09;100.00
75401;BME280;63974;47.538;18.972;2023-11-21T08:51:46;99869.28;;;8.10;100.00
75401;BME280;63974;47.538;18.972;2023-11-21T08:54:49;99879.00;;;8.24;100.00
75401;BME280;63974;47.538;18.972;2023-11-21T08:57:58;99874.75;;;8.39;100.00
75401;BME280;63974;47.538;18.972;2023-11-21T09:01:04;99862.31;;;8.26;100.00
75401;BME280;63974;47.538;18.972;2023-11-21T09:04:07;99865.41;;;8.14;100.00
75401;BME280;63974;47.538;18.972;2023-11-21T09:07:11;99870.25;;;8.17;100.00
75401;BME280;63974;47.538;18.972;2023-11-21T09:10:14;99865.75;;;8.19;100.00
75401;BME280;63974;47.538;18.972;2023-11-21T09:13:17;99843.91;;;8.13;100.00
75401;BME280;63974;47.538;18.972;2023-11-21T09:16:20;99849.44;;;8.18;100.00
75401;BME280;63974;47.538;18.972;2023-11-21T09:19:22;99850.06;;;8.28;100.00
75401;BME280;63974;47.538;18.972;2023-11-21T09:22:25;99831.00;;;8.05;100.00
75401;BME280;63974;47.538;18.972;2023-11-21T09:25:28;99825.63;;;8.15;100.00
75401;BME280;63974;47.538;18.972;2023-11-21T09:28:31;99831.31;;;8.10;100.00
75401;BME280;63974;47.538;18.972;2023-11-21T09:31:34;99831.63;;;8.15;100.00
75401;BME280;63974;47.538;18.972;2023-11-21T09:34:38;99828.25;;;8.23;100.00
75401;BME280;63974;47.538;18.972;2023-11-21T09:37:41;99818.53;;;8.25;100.00
75401;BME280;63974;47.538;18.972;2023-11-21T09:40:44;99813.03;;;8.20;100.00
75401;BME280;63974;47.538;18.972;2023-11-21T09:43:47;99810.44;;;8.28;100.00
75401;BME280;63974;47.538;18.972;2023-11-21T09:46:59;99798.81;;;8.16;100.00
75401;BME280;63974;47.538;18.972;2023-11-21T09:50:02;99804.50;;;8.19;100.00
75401;BME280;63974;47.538;18.972;2023-11-21T09:53:20;99796.91;;;8.10;100.00
75401;BME280;63974;47.538;18.972;2023-11-21T09:56:29;99789.44;;;8.15;100.00
75401;BME280;63974;47.538;18.972;2023-11-21T09:59:33;99769.59;;;7.99;100.00
75401;BME280;63974;47.538;18.972;2023-11-21T10:02:36;99783.63;;;8.13;100.00
75401;BME280;63974;47.538;18.972;2023-11-21T10:05:45;99768.59;;;8.08;100.00
75401;BME280;63974;47.538;18.972;2023-11-21T10:08:50;99772.94;;;8.16;100.00
75401;BME280;63974;47.538;18.972;2023-11-21T10:11:58;99773.28;;;8.21;100.00
75401;BME280;63974;47.538;18.972;2023-11-21T10:15:03;99759.38;;;8.14;100.00
75401;BME280;63974;47.538;18.972;2023-11-21T10:18:10;99764.41;;;8.15;100.00
75401;BME280;63974;47.538;18.972;2023-11-21T10:21:13;99766.66;;;8.10;100.00
75401;BME280;63974;47.538;18.972;2023-11-21T10:24:16;99764.56;;;8.14;100.00
75401;BME280;63974;47.538;18.972;2023-11-21T10:27:20;99760.50;;;8.11;100.00
75401;BME280;63974;47.538;18.972;2023-11-21T10:30:27;99763.72;;;8.13;100.00
75401;BME280;63974;47.538;18.972;2023-11-21T10:33:31;99762.94;;;8.13;100.00
75401;BME280;63974;47.538;18.972;2023-11-21T10:36:35;99760.19;;;8.14;100.00
75401;BME280;63974;47.538;18.972;2023-11-21T10:39:39;99765.72;;;8.19;100.00
75401;BME280;63974;47.538;18.972;2023-11-21T10:42:42;99767.47;;;8.19;100.00
75401;BME280;63974;47.538;18.972;2023-11-21T10:45:45;99767.13;;;8.14;100.00
75401;BME280;63974;47.538;18.972;2023-11-21T10:48:52;99751.00;;;8.12;100.00
75401;BME280;63974;47.538;18.972;2023-11-21T10:51:57;99750.34;;;8.10;100.00
75401;BME280;63974;47.538;18.972;2023-11-21T10:55:00;99747.63;;;8.03;100.00
75401;BME280;63974;47.538;18.972;2023-11-21T10:58:06;99747.94;;;8.00;100.00
75401;BME280;63974;47.538;18.972;2023-11-21T11:01:11;99753.28;;;7.99;100.00
75401;BME280;63974;47.538;18.972;2023-11-21T11:04:15;99752.66;;;7.97;100.00
75401;BME280;63974;47.538;18.972;2023-11-21T11:07:21;99750.38;;;7.94;100.00
75401;BME280;63974;47.538;18.972;2023-11-21T11:10:24;99749.59;;;7.93;100.00
75401;BME280;63974;47.538;18.972;2023-11-21T11:13:29;99746.19;;;7.93;100.00
75401;BME280;63974;47.538;18.972;2023-11-21T11:16:33;99736.03;;;7.91;100.00
75401;BME280;63974;47.538;18.972;2023-11-21T11:19:37;99738.28;;;7.94;100.00
75401;BME280;63974;47.538;18.972;2023-11-21T11:26:41;99732.97;;;7.80;100.00
75401;BME280;63974;47.538;18.972;2023-11-21T11:36:25;99728.44;;;7.82;100.00
75401;BME280;63974;47.538;18.972;2023-11-21T11:43:00;99723.88;;;7.92;100.00
75401;BME280;63974;47.538;18.972;2023-11-21T11:46:05;99724.22;;;7.89;100.00
75401;BME280;63974;47.538;18.972;2023-11-21T11:49:08;99730.38;;;7.88;100.00
75401;BME280;63974;47.538;18.972;2023-11-21T11:55:38;99731.16;;;7.88;100.00
75401;BME280;63974;47.538;18.972;2023-11-21T11:58:41;99729.06;;;7.92;100.00
75401;BME280;63974;47.538;18.972;2023-11-21T12:01:46;99719.25;;;7.79;100.00
75401;BME280;63974;47.538;18.972;2023-11-21T12:04:49;99718.09;;;7.82;100.00
75401;BME280;63974;47.538;18.972;2023-11-21T12:07:54;99708.44;;;7.76;100.00
75401;BME280;63974;47.538;18.972;2023-11-21T12:10:57;99706.34;;;7.79;100.00
75401;BME280;63974;47.538;18.972;2023-11-21T12:14:01;99714.25;;;7.78;100.00
75401;BME280;63974;47.538;18.972;2023-11-21T12:17:08;99710.53;;;7.80;100.00
75401;BME280;63974;47.538;18.972;2023-11-21T12:20:15;99709.56;;;7.81;100.00
75401;BME280;63974;47.538;18.972;2023-11-21T12:23:20;99707.47;;;7.77;100.00
75401;BME280;63974;47.538;18.972;2023-11-21T12:26:24;99700.00;;;7.82;100.00
75401;BME280;63974;47.538;18.972;2023-11-21T12:29:27;99708.25;;;7.77;100.00
75401;BME280;63974;47.538;18.972;2023-11-21T12:32:32;99705.50;;;7.79;100.00
75401;BME280;63974;47.538;18.972;2023-11-21T12:35:35;99707.94;;;7.80;100.00
75401;BME280;63974;47.538;18.972;2023-11-21T12:38:38;99702.28;;;7.77;100.00
75401;BME280;63974;47.538;18.972;2023-11-21T12:41:41;99695.81;;;7.81;100.00
75401;BME280;63974;47.538;18.972;2023-11-21T12:44:46;99678.84;;;7.86;100.00
75401;BME280;63974;47.538;18.972;2023-11-21T12:47:51;99670.16;;;7.79;100.00
75401;BME280;63974;47.538;18.972;2023-11-21T12:50:54;99681.41;;;7.86;100.00
75401;BME280;63974;47.538;18.972;2023-11-21T12:53:58;99684.00;;;7.86;100.00
75401;BME280;63974;47.538;18.972;2023-11-21T12:57:01;99679.47;;;7.88;100.00
75401;BME280;63974;47.538;18.972;2023-11-21T13:00:07;99676.06;;;7.96;100.00
75401;BME280;63974;47.538;18.972;2023-11-21T13:03:17;99679.44;;;7.96;100.00
75401;BME280;63974;47.538;18.972;2023-11-21T13:06:22;99674.50;;;7.87;100.00
75401;BME280;63974;47.538;18.972;2023-11-21T13:09:27;99674.41;;;8.03;100.00
75401;BME280;63974;47.538;18.972;2023-11-21T13:12:30;99675.75;;;7.99;100.00
75401;BME280;63974;47.538;18.972;2023-11-21T13:15:47;99674.41;;;8.03;100.00
75401;BME280;63974;47.538;18.972;2023-11-21T13:18:51;99675.69;;;8.07;100.00
75401;BME280;63974;47.538;18.972;2023-11-21T13:21:53;99672.81;;;8.02;100.00
75401;BME280;63974;47.538;18.972;2023-11-21T13:24:57;99674.06;;;8.14;100.00
75401;BME280;63974;47.538;18.972;2023-11-21T13:27:59;99675.81;;;8.13;100.00
75401;BME280;63974;47.538;18.972;2023-11-21T13:31:04;99682.03;;;8.04;100.00
75401;BME280;63974;47.538;18.972;2023-11-21T13:34:24;99677.50;;;7.98;100.00
75401;BME280;63974;47.538;18.972;2023-11-21T13:37:30;99675.56;;;8.00;100.00
75401;BME280;63974;47.538;18.972;2023-11-21T13:40:35;99677.84;;;7.95;100.00
75401;BME280;63974;47.538;18.972;2023-11-21T13:43:52;99684.97;;;7.93;100.00
75401;BME280;63974;47.538;18.972;2023-11-21T13:47:01;99687.06;;;7.98;100.00
75401;BME280;63974;47.538;18.972;2023-11-21T13:50:04;99682.19;;;7.95;100.00
75401;BME280;63974;47.538;18.972;2023-11-21T13:53:16;99680.09;;;7.90;100.00
75401;BME280;63974;47.538;18.972;2023-11-21T13:56:24;99699.50;;;7.86;100.00
75401;BME280;63974;47.538;18.972;2023-11-21T13:59:30;99682.25;;;7.87;100.00
75401;BME280;63974;47.538;18.972;2023-11-21T14:02:34;99698.72;;;7.86;100.00
75401;BME280;63974;47.538;18.972;2023-11-21T14:05:43;99689.19;;;7.86;100.00
75401;BME280;63974;47.538;18.972;2023-11-21T14:08:46;99702.09;;;7.86;100.00
75401;BME280;63974;47.538;18.972;2023-11-21T14:11:53;99706.63;;;7.84;100.00
75401;BME280;63974;47.538;18.972;2023-11-21T14:14:58;99711.16;;;7.82;100.00
75401;BME280;63974;47.538;18.972;2023-11-21T14:18:00;99675.53;;;7.62;100.00
75401;BME280;63974;47.538;18.972;2023-11-21T14:21:07;99720.66;;;7.90;100.00
75401;BME280;63974;47.538;18.972;2023-11-21T14:24:14;99716.63;;;7.87;100.00
75401;BME280;63974;47.538;18.972;2023-11-21T14:27:19;99716.97;;;7.84;100.00
75401;BME280;63974;47.538;18.972;2023-11-21T14:30:23;99710.34;;;7.82;100.00
75401;BME280;63974;47.538;18.972;2023-11-21T14:33:26;99717.94;;;7.83;100.00
75401;BME280;63974;47.538;18.972;2023-11-21T14:36:29;99718.91;;;7.82;100.00
75401;BME280;63974;47.538;18.972;2023-11-21T14:39:32;99722.63;;;7.80;100.00
75401;BME280;63974;47.538;18.972;2023-11-21T14:42:40;99729.75;;;7.78;100.00
75401;BME280;63974;47.538;18.972;2023-11-21T14:45:43;99726.19;;;7.79;100.00
75401;BME280;63974;47.538;18.972;2023-11-21T14:48:47;99726.47;;;7.84;100.00
75401;BME280;63974;47.538;18.972;2023-11-21T14:52:01;99729.72;;;7.86;100.00
75401;BME280;63974;47.538;18.972;2023-11-21T14:55:06;99726.97;;;7.87;100.00
75401;BME280;63974;47.538;18.972;2023-11-21T14:58:24;99725.84;;;7.90;100.00
75401;BME280;63974;47.538;18.972;2023-11-21T15:01:32;99716.47;;;7.81;100.00
75401;BME280;63974;47.538;18.972;2023-11-21T15:04:58;99714.53;;;7.83;100.00
75401;BME280;63974;47.538;18.972;2023-11-21T15:08:04;99724.56;;;7.78;100.00
75401;BME280;63974;47.538;18.972;2023-11-21T15:11:24;99721.66;;;7.81;100.00
75401;BME280;63974;47.538;18.972;2023-11-21T15:14:33;99718.25;;;7.88;100.00
75401;BME280;63974;47.538;18.972;2023-11-21T15:17:38;99723.41;;;7.96;100.00
75401;BME280;63974;47.538;18.972;2023-11-21T15:20:42;99730.03;;;7.99;100.00
75401;BME280;63974;47.538;18.972;2023-11-21T15:23:46;99735.34;;;7.97;100.00
75401;BME280;63974;47.538;18.972;2023-11-21T15:26:49;99740.53;;;7.89;100.00
75401;BME280;63974;47.538;18.972;2023-11-21T15:29:52;99740.84;;;7.94;100.00
75401;BME280;63974;47.538;18.972;2023-11-21T15:32:56;99741.47;;;8.04;100.00
75401;BME280;63974;47.538;18.972;2023-11-21T15:35:58;99741.16;;;8.07;100.00
75401;BME280;63974;47.538;18.972;2023-11-21T15:39:01;99732.13;;;8.03;100.00
75401;BME280;63974;47.538;18.972;2023-11-21T15:42:04;99732.13;;;8.03;100.00
75401;BME280;63974;47.538;18.972;2023-11-21T15:45:09;99738.13;;;7.88;100.00
75401;BME280;63974;47.538;18.972;2023-11-21T15:48:12;99733.63;;;7.74;100.00
75401;BME280;63974;47.538;18.972;2023-11-21T15:51:16;99743.16;;;7.73;100.00
75401;BME280;63974;47.538;18.972;2023-11-21T15:54:22;99747.19;;;7.68;100.00
75401;BME280;63974;47.538;18.972;2023-11-21T15:57:27;99742.50;;;7.63;100.00
75401;BME280;63974;47.538;18.972;2023-11-21T16:00:30;99748.50;;;7.56;100.00
75401;BME280;63974;47.538;18.972;2023-11-21T16:03:33;99750.75;;;7.59;100.00
75401;BME280;63974;47.538;18.972;2023-11-21T16:06:37;99744.78;;;7.58;100.00
75401;BME280;63974;47.538;18.972;2023-11-21T16:09:41;99748.97;;;7.59;100.00
75401;BME280;63974;47.538;18.972;2023-11-21T16:12:45;99756.88;;;7.58;100.00
75401;BME280;63974;47.538;18.972;2023-11-21T16:15:48;99752.69;;;7.57;100.00
75401;BME280;63974;47.538;18.972;2023-11-21T16:18:53;99752.34;;;7.60;100.00
75401;BME280;63974;47.538;18.972;2023-11-21T16:21:56;99765.94;;;7.62;100.00